sensor_id;sensor_type;location;lat;lon;timestamp;pressure;altitude;pressure_sealevel;temperature;humidity
5879;BME280;2965;42.640;23.370;2023-07-28T04:01:39;94654.75;;;13.11;nan
5879;BME280;2965;42.640;23.370;2023-07-28T04:04:05;94652.72;;;13.07;nan
5879;BME280;2965;42.640;23.370;2023-07-28T04:06:46;94650.69;;;13.09;nan
5879;BME280;2965;42.640;23.370;2023-07-28T04:09:16;94653.44;;;12.94;nan
5879;BME280;2965;42.640;23.370;2023-07-28T04:11:42;94659.72;;;13.00;nan
5879;BME280;2965;42.640;23.370;2023-07-28T04:14:08;94659.56;;;13.08;nan
5879;BME280;2965;42.640;23.370;2023-07-28T04:16:33;94660.44;;;13.15;nan
5879;BME280;2965;42.640;23.370;2023-07-28T04:18:59;94663.06;;;13.22;nan
5879;BME280;2965;42.640;23.370;2023-07-28T04:21:25;94658.06;;;13.27;nan
5879;BME280;2965;42.640;23.370;2023-07-28T04:23:50;94657.69;;;13.36;nan
5879;BME280;2965;42.640;23.370;2023-07-28T04:26:16;94656.94;;;13.43;nan
5879;BME280;2965;42.640;23.370;2023-07-28T04:28:43;94658.16;;;13.53;nan
5879;BME280;2965;42.640;23.370;2023-07-28T04:31:08;94666.28;;;13.65;nan
5879;BME280;2965;42.640;23.370;2023-07-28T04:33:34;94663.88;;;13.70;nan
5879;BME280;2965;42.640;23.370;2023-07-28T04:36:02;94666.31;;;13.78;nan
5879;BME280;2965;42.640;23.370;2023-07-28T04:38:27;94666.34;;;13.92;nan
5879;BME280;2965;42.640;23.370;2023-07-28T04:40:53;94670.00;;;14.04;nan
5879;BME280;2965;42.640;23.370;2023-07-28T04:43:18;94661.13;;;14.18;nan
5879;BME280;2965;42.640;23.370;2023-07-28T04:45:44;94655.47;;;14.21;nan
5879;BME280;2965;42.640;23.370;2023-07-28T04:48:10;94660.72;;;14.34;nan
5879;BME280;2965;42.640;23.370;2023-07-28T04:50:35;94663.94;;;14.43;nan
5879;BME280;2965;42.640;23.370;2023-07-28T04:53:01;94675.31;;;14.50;nan
5879;BME280;2965;42.640;23.370;2023-07-28T04:55:26;94669.22;;;14.63;nan
5879;BME280;2965;42.640;23.370;2023-07-28T04:57:52;94670.81;;;14.77;nan
5879;BME280;2965;42.640;23.370;2023-07-28T05:00:18;94657.44;;;14.85;nan
5879;BME280;2965;42.640;23.370;2023-07-28T05:02:43;94661.06;;;14.98;nan
5879;BME280;2965;42.640;23.370;2023-07-28T05:05:09;94666.72;;;15.08;nan
5879;BME280;2965;42.640;23.370;2023-07-28T05:07:34;94670.53;;;15.19;nan
5879;BME280;2965;42.640;23.370;2023-07-28T05:10:00;94672.13;;;15.26;nan
5879;BME280;2965;42.640;23.370;2023-07-28T05:12:25;94668.28;;;15.29;nan
5879;BME280;2965;42.640;23.370;2023-07-28T05:14:50;94669.88;;;15.30;nan
5879;BME280;2965;42.640;23.370;2023-07-28T05:17:16;94673.09;;;15.38;nan
5879;BME280;2965;42.640;23.370;2023-07-28T05:19:41;94664.09;;;15.53;nan
5879;BME280;2965;42.640;23.370;2023-07-28T05:22:07;94667.75;;;15.65;nan
5879;BME280;2965;42.640;23.370;2023-07-28T05:24:35;94670.53;;;15.70;nan
5879;BME280;2965;42.640;23.370;2023-07-28T05:27:01;94662.25;;;15.67;nan
5879;BME280;2965;42.640;23.370;2023-07-28T05:29:26;94674.47;;;15.48;nan
5879;BME280;2965;42.640;23.370;2023-07-28T05:31:51;94666.63;;;15.34;nan
5879;BME280;2965;42.640;23.370;2023-07-28T05:34:17;94662.56;;;15.38;nan
5879;BME280;2965;42.640;23.370;2023-07-28T05:36:43;94665.88;;;15.21;nan
5879;BME280;2965;42.640;23.370;2023-07-28T05:39:09;94661.34;;;15.41;nan
5879;BME280;2965;42.640;23.370;2023-07-28T05:41:36;94669.03;;;15.43;nan
5879;BME280;2965;42.640;23.370;2023-07-28T05:44:02;94664.84;;;15.28;nan
5879;BME280;2965;42.640;23.370;2023-07-28T05:46:28;94666.34;;;15.49;nan
5879;BME280;2965;42.640;23.370;2023-07-28T05:48:59;94662.50;;;15.52;nan
5879;BME280;2965;42.640;23.370;2023-07-28T05:51:25;94661.88;;;15.56;nan
5879;BME280;2965;42.640;23.370;2023-07-28T05:53:50;94659.19;;;15.70;nan
5879;BME280;2965;42.640;23.370;2023-07-28T05:56:16;94654.66;;;15.83;nan
5879;BME280;2965;42.640;23.370;2023-07-28T05:58:41;94650.91;;;15.98;nan
5879;BME280;2965;42.640;23.370;2023-07-28T06:01:07;94646.41;;;16.05;nan
5879;BME280;2965;42.640;23.370;2023-07-28T06:03:32;94646.97;;;16.07;nan
5879;BME280;2965;42.640;23.370;2023-07-28T06:05:58;94644.97;;;16.09;nan
5879;BME280;2965;42.640;23.370;2023-07-28T06:08:23;94640.16;;;16.24;nan
5879;BME280;2965;42.640;23.370;2023-07-28T06:10:48;94640.53;;;16.28;nan
5879;BME280;2965;42.640;23.370;2023-07-28T06:13:14;94637.16;;;16.46;nan
5879;BME280;2965;42.640;23.370;2023-07-28T06:15:40;94644.38;;;16.57;nan
5879;BME280;2965;42.640;23.370;2023-07-28T06:18:05;94642.81;;;16.49;nan
5879;BME280;2965;42.640;23.370;2023-07-28T06:20:31;94642.16;;;16.54;nan
5879;BME280;2965;42.640;23.370;2023-07-28T06:22:56;94637.38;;;16.69;nan
5879;BME280;2965;42.640;23.370;2023-07-28T06:25:22;94636.81;;;16.85;nan
5879;BME280;2965;42.640;23.370;2023-07-28T06:27:47;94629.25;;;16.89;nan
5879;BME280;2965;42.640;23.370;2023-07-28T06:30:12;94631.38;;;16.99;nan
5879;BME280;2965;42.640;23.370;2023-07-28T06:32:38;94627.72;;;17.00;nan
5879;BME280;2965;42.640;23.370;2023-07-28T06:35:04;94628.88;;;17.04;nan
5879;BME280;2965;42.640;23.370;2023-07-28T06:37:30;94626.41;;;17.09;nan
5879;BME280;2965;42.640;23.370;2023-07-28T06:39:55;94626.69;;;17.19;nan
5879;BME280;2965;42.640;23.370;2023-07-28T06:42:21;94619.94;;;17.23;nan
5879;BME280;2965;42.640;23.370;2023-07-28T06:44:49;94620.53;;;17.25;nan
5879;BME280;2965;42.640;23.370;2023-07-28T06:47:15;94630.66;;;17.28;nan
5879;BME280;2965;42.640;23.370;2023-07-28T06:49:41;94629.31;;;17.37;nan
5879;BME280;2965;42.640;23.370;2023-07-28T06:52:06;94636.06;;;17.52;nan
5879;BME280;2965;42.640;23.370;2023-07-28T06:54:32;94633.09;;;17.60;nan
5879;BME280;2965;42.640;23.370;2023-07-28T06:56:57;94631.63;;;17.64;nan
5879;BME280;2965;42.640;23.370;2023-07-28T06:59:22;94625.31;;;17.65;nan
5879;BME280;2965;42.640;23.370;2023-07-28T07:01:48;94627.06;;;17.71;nan
5879;BME280;2965;42.640;23.370;2023-07-28T07:04:13;94630.91;;;17.75;nan
5879;BME280;2965;42.640;23.370;2023-07-28T07:06:39;94630.91;;;17.75;nan
5879;BME280;2965;42.640;23.370;2023-07-28T07:09:04;94628.66;;;17.90;nan
5879;BME280;2965;42.640;23.370;2023-07-28T07:11:31;94627.41;;;18.05;nan
5879;BME280;2965;42.640;23.370;2023-07-28T07:13:56;94628.22;;;18.05;nan
5879;BME280;2965;42.640;23.370;2023-07-28T07:16:23;94628.81;;;18.19;nan
5879;BME280;2965;42.640;23.370;2023-07-28T07:18:48;94629.66;;;18.31;nan
5879;BME280;2965;42.640;23.370;2023-07-28T07:21:13;94623.00;;;18.40;nan
5879;BME280;2965;42.640;23.370;2023-07-28T07:23:39;94629.66;;;18.55;nan
5879;BME280;2965;42.640;23.370;2023-07-28T07:26:04;94625.31;;;18.49;nan
5879;BME280;2965;42.640;23.370;2023-07-28T07:28:30;94624.72;;;18.35;nan
5879;BME280;2965;42.640;23.370;2023-07-28T07:30:55;94626.69;;;18.39;nan
5879;BME280;2965;42.640;23.370;2023-07-28T07:33:21;94640.25;;;18.55;nan
5879;BME280;2965;42.640;23.370;2023-07-28T07:35:46;94641.09;;;18.55;nan
5879;BME280;2965;42.640;23.370;2023-07-28T07:38:12;94638.44;;;18.67;nan
5879;BME280;2965;42.640;23.370;2023-07-28T07:40:37;94636.50;;;18.51;nan
5879;BME280;2965;42.640;23.370;2023-07-28T07:43:03;94636.38;;;18.57;nan
5879;BME280;2965;42.640;23.370;2023-07-28T07:45:32;94643.75;;;18.67;nan
5879;BME280;2965;42.640;23.370;2023-07-28T07:47:58;94635.25;;;18.88;nan
5879;BME280;2965;42.640;23.370;2023-07-28T07:50:24;94641.91;;;19.14;nan
5879;BME280;2965;42.640;23.370;2023-07-28T07:52:50;94638.84;;;19.34;nan
5879;BME280;2965;42.640;23.370;2023-07-28T07:55:15;94644.56;;;19.55;nan
5879;BME280;2965;42.640;23.370;2023-07-28T07:57:41;94643.66;;;19.61;nan
5879;BME280;2965;42.640;23.370;2023-07-28T08:00:07;94646.16;;;19.79;nan
5879;BME280;2965;42.640;23.370;2023-07-28T08:02:34;94650.50;;;19.85;nan
5879;BME280;2965;42.640;23.370;2023-07-28T08:04:59;94649.34;;;19.81;nan
5879;BME280;2965;42.640;23.370;2023-07-28T08:07:25;94650.91;;;19.65;nan
5879;BME280;2965;42.640;23.370;2023-07-28T08:09:50;94641.66;;;19.80;nan
5879;BME280;2965;42.640;23.370;2023-07-28T08:12:16;94650.88;;;20.06;nan
5879;BME280;2965;42.640;23.370;2023-07-28T08:14:41;94636.81;;;20.22;nan
5879;BME280;2965;42.640;23.370;2023-07-28T08:17:08;94628.19;;;20.32;nan
5879;BME280;2965;42.640;23.370;2023-07-28T08:19:33;94635.63;;;20.47;nan
5879;BME280;2965;42.640;23.370;2023-07-28T08:21:58;94632.41;;;20.61;nan
5879;BME280;2965;42.640;23.370;2023-07-28T08:24:23;94628.69;;;20.79;nan
5879;BME280;2965;42.640;23.370;2023-07-28T08:26:49;94627.75;;;20.85;nan
5879;BME280;2965;42.640;23.370;2023-07-28T08:29:15;94628.59;;;21.08;nan
5879;BME280;2965;42.640;23.370;2023-07-28T08:31:40;94631.25;;;21.08;nan
5879;BME280;2965;42.640;23.370;2023-07-28T08:34:07;94622.34;;;21.19;nan
5879;BME280;2965;42.640;23.370;2023-07-28T08:36:33;94630.38;;;21.24;nan
5879;BME280;2965;42.640;23.370;2023-07-28T08:38:58;94626.09;;;21.23;nan
5879;BME280;2965;42.640;23.370;2023-07-28T08:41:24;94623.06;;;21.31;nan
5879;BME280;2965;42.640;23.370;2023-07-28T08:43:50;94627.56;;;21.53;nan
5879;BME280;2965;42.640;23.370;2023-07-28T08:46:16;94621.44;;;21.74;nan
5879;BME280;2965;42.640;23.370;2023-07-28T08:48:42;94619.41;;;21.86;nan
5879;BME280;2965;42.640;23.370;2023-07-28T08:51:09;94619.28;;;21.98;nan
5879;BME280;2965;42.640;23.370;2023-07-28T08:53:37;94612.34;;;22.24;nan
5879;BME280;2965;42.640;23.370;2023-07-28T08:56:03;94617.25;;;22.37;nan
5879;BME280;2965;42.640;23.370;2023-07-28T08:58:29;94610.28;;;22.31;nan
5879;BME280;2965;42.640;23.370;2023-07-28T09:00:55;94604.53;;;22.45;nan
5879;BME280;2965;42.640;23.370;2023-07-28T09:03:21;94609.47;;;22.63;nan
5879;BME280;2965;42.640;23.370;2023-07-28T09:05:46;94605.06;;;22.84;nan
5879;BME280;2965;42.640;23.370;2023-07-28T09:08:16;94597.47;;;23.03;nan
5879;BME280;2965;42.640;23.370;2023-07-28T09:10:46;94594.34;;;23.11;nan
5879;BME280;2965;42.640;23.370;2023-07-28T09:13:16;94590.66;;;23.32;nan
5879;BME280;2965;42.640;23.370;2023-07-28T09:15:41;94585.91;;;23.39;nan
5879;BME280;2965;42.640;23.370;2023-07-28T09:18:17;94583.22;;;23.34;nan
5879;BME280;2965;42.640;23.370;2023-07-28T09:20:42;94570.66;;;23.30;nan
5879;BME280;2965;42.640;23.370;2023-07-28T09:23:09;94569.91;;;23.39;nan
5879;BME280;2965;42.640;23.370;2023-07-28T09:25:36;94572.41;;;23.66;nan
5879;BME280;2965;42.640;23.370;2023-07-28T09:28:02;94570.31;;;23.89;nan
5879;BME280;2965;42.640;23.370;2023-07-28T09:30:43;94564.16;;;23.78;nan
5879;BME280;2965;42.640;23.370;2023-07-28T09:33:09;94559.91;;;23.98;nan
5879;BME280;2965;42.640;23.370;2023-07-28T09:35:47;94549.78;;;24.05;nan
5879;BME280;2965;42.640;23.370;2023-07-28T09:38:14;94542.03;;;24.24;nan
5879;BME280;2965;42.640;23.370;2023-07-28T09:40:40;94540.44;;;24.53;nan
5879;BME280;2965;42.640;23.370;2023-07-28T09:43:06;94532.13;;;24.60;nan
5879;BME280;2965;42.640;23.370;2023-07-28T09:45:31;94527.53;;;24.86;nan
5879;BME280;2965;42.640;23.370;2023-07-28T09:47:58;94525.06;;;25.05;nan
5879;BME280;2965;42.640;23.370;2023-07-28T09:50:26;94526.69;;;24.96;nan
5879;BME280;2965;42.640;23.370;2023-07-28T09:52:54;94519.16;;;25.18;nan
5879;BME280;2965;42.640;23.370;2023-07-28T09:55:23;94523.34;;;25.39;nan
5879;BME280;2965;42.640;23.370;2023-07-28T09:57:54;94525.94;;;25.55;nan
5879;BME280;2965;42.640;23.370;2023-07-28T10:00:21;94529.88;;;25.67;nan
5879;BME280;2965;42.640;23.370;2023-07-28T10:02:48;94526.16;;;25.63;nan
5879;BME280;2965;42.640;23.370;2023-07-28T10:05:14;94526.06;;;25.84;nan
5879;BME280;2965;42.640;23.370;2023-07-28T10:07:42;94511.69;;;26.09;nan
5879;BME280;2965;42.640;23.370;2023-07-28T10:10:10;94519.47;;;26.05;nan
5879;BME280;2965;42.640;23.370;2023-07-28T10:12:49;94505.81;;;26.02;nan
5879;BME280;2965;42.640;23.370;2023-07-28T10:15:35;94518.50;;;26.25;nan
5879;BME280;2965;42.640;23.370;2023-07-28T10:18:05;94519.81;;;26.62;nan
5879;BME280;2965;42.640;23.370;2023-07-28T10:20:40;94514.47;;;26.62;nan
5879;BME280;2965;42.640;23.370;2023-07-28T10:23:14;94511.78;;;26.62;nan
5879;BME280;2965;42.640;23.370;2023-07-28T10:25:41;94506.59;;;26.95;nan
5879;BME280;2965;42.640;23.370;2023-07-28T10:28:08;94504.31;;;27.07;nan
5879;BME280;2965;42.640;23.370;2023-07-28T10:30:54;94504.44;;;26.97;nan
5879;BME280;2965;42.640;23.370;2023-07-28T10:35:55;94497.78;;;27.37;nan
5879;BME280;2965;42.640;23.370;2023-07-28T10:38:31;94502.53;;;27.64;nan
5879;BME280;2965;42.640;23.370;2023-07-28T10:41:07;94498.53;;;27.61;nan
5879;BME280;2965;42.640;23.370;2023-07-28T10:43:33;94480.75;;;27.84;nan
5879;BME280;2965;42.640;23.370;2023-07-28T10:45:59;94486.84;;;28.09;nan
5879;BME280;2965;42.640;23.370;2023-07-28T10:48:25;94484.28;;;27.61;nan
5879;BME280;2965;42.640;23.370;2023-07-28T10:50:50;94484.94;;;27.53;nan
5879;BME280;2965;42.640;23.370;2023-07-28T10:53:16;94485.84;;;27.67;nan
5879;BME280;2965;42.640;23.370;2023-07-28T10:55:41;94468.84;;;27.90;nan
5879;BME280;2965;42.640;23.370;2023-07-28T10:58:06;94465.31;;;28.09;nan
5879;BME280;2965;42.640;23.370;2023-07-28T11:00:32;94465.66;;;28.21;nan
5879;BME280;2965;42.640;23.370;2023-07-28T11:02:57;94453.72;;;28.60;nan
5879;BME280;2965;42.640;23.370;2023-07-28T11:05:28;94450.16;;;29.06;nan
5879;BME280;2965;42.640;23.370;2023-07-28T11:07:55;94449.72;;;29.26;nan
5879;BME280;2965;42.640;23.370;2023-07-28T11:10:21;94458.81;;;29.53;nan
5879;BME280;2965;42.640;23.370;2023-07-28T11:12:48;94456.56;;;29.82;nan
5879;BME280;2965;42.640;23.370;2023-07-28T11:15:15;94451.03;;;29.65;nan
5879;BME280;2965;42.640;23.370;2023-07-28T11:17:44;94445.91;;;30.00;nan
5879;BME280;2965;42.640;23.370;2023-07-28T11:20:21;94442.34;;;30.35;nan
5879;BME280;2965;42.640;23.370;2023-07-28T11:22:52;94431.84;;;30.56;nan
5879;BME280;2965;42.640;23.370;2023-07-28T11:25:18;94437.06;;;30.22;nan
5879;BME280;2965;42.640;23.370;2023-07-28T11:27:44;94429.47;;;30.55;nan
5879;BME280;2965;42.640;23.370;2023-07-28T11:30:12;94422.44;;;30.85;nan
5879;BME280;2965;42.640;23.370;2023-07-28T11:32:37;94420.06;;;30.83;nan
5879;BME280;2965;42.640;23.370;2023-07-28T11:35:08;94427.75;;;30.36;nan
5879;BME280;2965;42.640;23.370;2023-07-28T11:37:37;94413.53;;;30.45;nan
5879;BME280;2965;42.640;23.370;2023-07-28T11:40:07;94410.53;;;30.77;nan
5879;BME280;2965;42.640;23.370;2023-07-28T11:42:44;94416.06;;;31.29;nan
5879;BME280;2965;42.640;23.370;2023-07-28T11:45:10;94401.16;;;31.93;nan
5879;BME280;2965;42.640;23.370;2023-07-28T11:47:37;94408.16;;;31.94;nan
5879;BME280;2965;42.640;23.370;2023-07-28T11:50:03;94399.84;;;32.16;nan
5879;BME280;2965;42.640;23.370;2023-07-28T11:52:36;94404.81;;;31.71;nan
5879;BME280;2965;42.640;23.370;2023-07-28T11:55:05;94410.81;;;31.42;nan
5879;BME280;2965;42.640;23.370;2023-07-28T11:57:32;94410.66;;;31.47;nan
5879;BME280;2965;42.640;23.370;2023-07-28T11:59:58;94411.28;;;31.78;nan
5879;BME280;2965;42.640;23.370;2023-07-28T12:02:28;94402.09;;;31.97;nan
5879;BME280;2965;42.640;23.370;2023-07-28T12:04:54;94399.06;;;31.72;nan
5879;BME280;2965;42.640;23.370;2023-07-28T12:07:31;94403.19;;;31.61;nan
5879;BME280;2965;42.640;23.370;2023-07-28T12:09:57;94394.78;;;31.54;nan
5879;BME280;2965;42.640;23.370;2023-07-28T12:12:27;94400.47;;;31.78;nan
5879;BME280;2965;42.640;23.370;2023-07-28T12:14:57;94400.19;;;31.71;nan
5879;BME280;2965;42.640;23.370;2023-07-28T12:17:30;94388.75;;;31.57;nan
5879;BME280;2965;42.640;23.370;2023-07-28T12:19:58;94383.19;;;31.62;nan
5879;BME280;2965;42.640;23.370;2023-07-28T12:22:25;94378.03;;;32.12;nan
5879;BME280;2965;42.640;23.370;2023-07-28T12:24:50;94377.13;;;31.74;nan
5879;BME280;2965;42.640;23.370;2023-07-28T12:27:15;94372.66;;;31.95;nan
5879;BME280;2965;42.640;23.370;2023-07-28T12:29:41;94378.38;;;32.02;nan
5879;BME280;2965;42.640;23.370;2023-07-28T12:32:07;94371.69;;;32.00;nan
5879;BME280;2965;42.640;23.370;2023-07-28T12:34:33;94381.34;;;32.18;nan
5879;BME280;2965;42.640;23.370;2023-07-28T12:36:58;94379.78;;;32.17;nan
5879;BME280;2965;42.640;23.370;2023-07-28T12:39:24;94378.94;;;32.34;nan
5879;BME280;2965;42.640;23.370;2023-07-28T12:41:49;94371.91;;;32.50;nan
5879;BME280;2965;42.640;23.370;2023-07-28T12:44:18;94358.50;;;32.54;nan
5879;BME280;2965;42.640;23.370;2023-07-28T12:46:44;94363.75;;;31.95;nan
5879;BME280;2965;42.640;23.370;2023-07-28T12:49:09;94352.50;;;32.31;nan
5879;BME280;2965;42.640;23.370;2023-07-28T12:51:34;94348.22;;;32.38;nan
5879;BME280;2965;42.640;23.370;2023-07-28T12:54:00;94351.69;;;32.48;nan
5879;BME280;2965;42.640;23.370;2023-07-28T12:56:25;94352.22;;;32.41;nan
5879;BME280;2965;42.640;23.370;2023-07-28T12:58:51;94350.97;;;32.68;nan
5879;BME280;2965;42.640;23.370;2023-07-28T13:01:16;94344.22;;;32.74;nan
5879;BME280;2965;42.640;23.370;2023-07-28T13:03:41;94358.03;;;32.52;nan
5879;BME280;2965;42.640;23.370;2023-07-28T13:06:07;94353.00;;;32.42;nan
5879;BME280;2965;42.640;23.370;2023-07-28T13:08:32;94353.47;;;32.26;nan
5879;BME280;2965;42.640;23.370;2023-07-28T13:10:57;94344.34;;;32.01;nan
5879;BME280;2965;42.640;23.370;2023-07-28T13:13:23;94341.06;;;32.34;nan
5879;BME280;2965;42.640;23.370;2023-07-28T13:15:48;94341.78;;;32.52;nan
5879;BME280;2965;42.640;23.370;2023-07-28T13:18:14;94331.03;;;32.73;nan
5879;BME280;2965;42.640;23.370;2023-07-28T13:20:39;94322.81;;;32.90;nan
5879;BME280;2965;42.640;23.370;2023-07-28T13:23:04;94315.47;;;32.90;nan
5879;BME280;2965;42.640;23.370;2023-07-28T13:25:30;94313.97;;;33.02;nan
5879;BME280;2965;42.640;23.370;2023-07-28T13:27:55;94313.00;;;33.27;nan
5879;BME280;2965;42.640;23.370;2023-07-28T13:30:20;94322.50;;;33.33;nan
5879;BME280;2965;42.640;23.370;2023-07-28T13:32:46;94306.66;;;33.44;nan
5879;BME280;2965;42.640;23.370;2023-07-28T13:35:11;94310.63;;;33.05;nan
5879;BME280;2965;42.640;23.370;2023-07-28T13:37:37;94306.88;;;32.88;nan
5879;BME280;2965;42.640;23.370;2023-07-28T13:40:03;94309.03;;;33.04;nan
5879;BME280;2965;42.640;23.370;2023-07-28T13:42:28;94312.06;;;33.23;nan
5879;BME280;2965;42.640;23.370;2023-07-28T13:44:53;94307.03;;;33.55;nan
5879;BME280;2965;42.640;23.370;2023-07-28T13:47:19;94305.06;;;33.43;nan
5879;BME280;2965;42.640;23.370;2023-07-28T13:49:44;94310.47;;;33.64;nan
5879;BME280;2965;42.640;23.370;2023-07-28T13:52:09;94310.94;;;33.99;nan
5879;BME280;2965;42.640;23.370;2023-07-28T13:54:35;94294.94;;;33.85;nan
5879;BME280;2965;42.640;23.370;2023-07-28T13:57:01;94297.38;;;34.11;nan
5879;BME280;2965;42.640;23.370;2023-07-28T13:59:26;94301.84;;;33.83;nan
5879;BME280;2965;42.640;23.370;2023-07-28T14:01:51;94291.03;;;33.62;nan
5879;BME280;2965;42.640;23.370;2023-07-28T14:04:17;94295.28;;;33.51;nan
5879;BME280;2965;42.640;23.370;2023-07-28T14:06:42;94281.25;;;33.70;nan
5879;BME280;2965;42.640;23.370;2023-07-28T14:09:08;94291.66;;;33.80;nan
5879;BME280;2965;42.640;23.370;2023-07-28T14:11:34;94299.16;;;33.62;nan
5879;BME280;2965;42.640;23.370;2023-07-28T14:14:03;94285.88;;;33.69;nan
5879;BME280;2965;42.640;23.370;2023-07-28T14:16:29;94293.53;;;33.67;nan
5879;BME280;2965;42.640;23.370;2023-07-28T14:18:55;94299.03;;;33.92;nan
5879;BME280;2965;42.640;23.370;2023-07-28T14:21:20;94294.78;;;34.03;nan
5879;BME280;2965;42.640;23.370;2023-07-28T14:23:46;94290.25;;;34.07;nan
5879;BME280;2965;42.640;23.370;2023-07-28T14:26:11;94281.91;;;33.67;nan
5879;BME280;2965;42.640;23.370;2023-07-28T14:28:37;94281.44;;;34.22;nan
5879;BME280;2965;42.640;23.370;2023-07-28T14:31:02;94284.63;;;34.24;nan
5879;BME280;2965;42.640;23.370;2023-07-28T14:33:27;94276.84;;;34.59;nan
5879;BME280;2965;42.640;23.370;2023-07-28T14:35:53;94276.00;;;34.96;nan
5879;BME280;2965;42.640;23.370;2023-07-28T14:38:19;94278.28;;;34.94;nan
5879;BME280;2965;42.640;23.370;2023-07-28T14:40:45;94288.06;;;34.58;nan
5879;BME280;2965;42.640;23.370;2023-07-28T14:43:14;94276.72;;;34.31;nan
5879;BME280;2965;42.640;23.370;2023-07-28T14:45:40;94279.69;;;34.63;nan
5879;BME280;2965;42.640;23.370;2023-07-28T14:48:05;94291.41;;;34.92;nan
5879;BME280;2965;42.640;23.370;2023-07-28T14:50:31;94279.88;;;34.21;nan
5879;BME280;2965;42.640;23.370;2023-07-28T14:52:59;94282.63;;;33.88;nan
5879;BME280;2965;42.640;23.370;2023-07-28T14:55:25;94285.91;;;33.94;nan
5879;BME280;2965;42.640;23.370;2023-07-28T14:57:51;94283.25;;;34.06;nan
5879;BME280;2965;42.640;23.370;2023-07-28T15:00:17;94283.63;;;34.41;nan
5879;BME280;2965;42.640;23.370;2023-07-28T15:02:42;94281.91;;;34.85;nan
5879;BME280;2965;42.640;23.370;2023-07-28T15:05:08;94273.13;;;34.52;nan
5879;BME280;2965;42.640;23.370;2023-07-28T15:07:34;94269.25;;;34.77;nan
5879;BME280;2965;42.640;23.370;2023-07-28T15:10:01;94275.72;;;34.60;nan
5879;BME280;2965;42.640;23.370;2023-07-28T15:12:26;94276.91;;;34.02;nan
5879;BME280;2965;42.640;23.370;2023-07-28T15:14:51;94276.84;;;33.77;nan
5879;BME280;2965;42.640;23.370;2023-07-28T15:17:17;94269.63;;;33.81;nan
5879;BME280;2965;42.640;23.370;2023-07-28T15:19:42;94273.03;;;33.90;nan
5879;BME280;2965;42.640;23.370;2023-07-28T15:22:07;94276.16;;;33.80;nan
5879;BME280;2965;42.640;23.370;2023-07-28T15:24:33;94270.84;;;34.05;nan
5879;BME280;2965;42.640;23.370;2023-07-28T15:26:58;94265.88;;;34.19;nan
5879;BME280;2965;42.640;23.370;2023-07-28T15:29:23;94270.53;;;33.85;nan
5879;BME280;2965;42.640;23.370;2023-07-28T15:31:49;94265.63;;;34.12;nan
5879;BME280;2965;42.640;23.370;2023-07-28T15:34:15;94264.97;;;34.15;nan
5879;BME280;2965;42.640;23.370;2023-07-28T15:36:41;94268.81;;;34.38;nan
5879;BME280;2965;42.640;23.370;2023-07-28T15:39:06;94262.00;;;34.20;nan
5879;BME280;2965;42.640;23.370;2023-07-28T15:41:32;94264.28;;;34.06;nan
5879;BME280;2965;42.640;23.370;2023-07-28T15:43:57;94266.38;;;33.88;nan
5879;BME280;2965;42.640;23.370;2023-07-28T15:46:23;94274.00;;;34.19;nan
5879;BME280;2965;42.640;23.370;2023-07-28T15:48:48;94274.69;;;34.28;nan
5879;BME280;2965;42.640;23.370;2023-07-28T15:51:13;94276.72;;;34.19;nan
5879;BME280;2965;42.640;23.370;2023-07-28T15:53:39;94269.22;;;34.04;nan
5879;BME280;2965;42.640;23.370;2023-07-28T15:56:05;94278.53;;;34.27;nan
5879;BME280;2965;42.640;23.370;2023-07-28T15:58:31;94287.09;;;34.05;nan
5879;BME280;2965;42.640;23.370;2023-07-28T16:00:56;94283.66;;;33.83;nan
5879;BME280;2965;42.640;23.370;2023-07-28T16:03:22;94286.03;;;33.52;nan
5879;BME280;2965;42.640;23.370;2023-07-28T16:05:47;94296.06;;;33.51;nan
5879;BME280;2965;42.640;23.370;2023-07-28T16:08:13;94292.91;;;33.49;nan
5879;BME280;2965;42.640;23.370;2023-07-28T16:10:38;94299.25;;;33.32;nan
5879;BME280;2965;42.640;23.370;2023-07-28T16:13:03;94297.38;;;33.24;nan
5879;BME280;2965;42.640;23.370;2023-07-28T16:15:29;94299.50;;;33.39;nan
5879;BME280;2965;42.640;23.370;2023-07-28T16:17:55;94299.59;;;32.80;nan
5879;BME280;2965;42.640;23.370;2023-07-28T16:20:20;94294.75;;;32.65;nan
5879;BME280;2965;42.640;23.370;2023-07-28T16:22:46;94298.41;;;32.31;nan
5879;BME280;2965;42.640;23.370;2023-07-28T16:25:11;94299.22;;;32.23;nan
5879;BME280;2965;42.640;23.370;2023-07-28T16:27:36;94289.69;;;32.25;nan
5879;BME280;2965;42.640;23.370;2023-07-28T16:30:05;94297.63;;;32.30;nan
5879;BME280;2965;42.640;23.370;2023-07-28T16:32:31;94298.44;;;32.22;nan
5879;BME280;2965;42.640;23.370;2023-07-28T16:34:57;94293.94;;;31.97;nan
5879;BME280;2965;42.640;23.370;2023-07-28T16:37:22;94306.03;;;31.82;nan
5879;BME280;2965;42.640;23.370;2023-07-28T16:39:47;94301.16;;;31.58;nan
5879;BME280;2965;42.640;23.370;2023-07-28T16:42:13;94295.44;;;31.33;nan
5879;BME280;2965;42.640;23.370;2023-07-28T16:44:38;94303.22;;;31.26;nan
5879;BME280;2965;42.640;23.370;2023-07-28T16:47:05;94307.97;;;31.12;nan
5879;BME280;2965;42.640;23.370;2023-07-28T16:49:31;94311.03;;;31.36;nan
5879;BME280;2965;42.640;23.370;2023-07-28T16:51:56;94323.22;;;30.90;nan
5879;BME280;2965;42.640;23.370;2023-07-28T16:54:21;94319.00;;;30.67;nan
5879;BME280;2965;42.640;23.370;2023-07-28T16:56:47;94323.78;;;30.70;nan
5879;BME280;2965;42.640;23.370;2023-07-28T16:59:12;94317.47;;;30.35;nan
5879;BME280;2965;42.640;23.370;2023-07-28T17:01:38;94326.31;;;30.18;nan
5879;BME280;2965;42.640;23.370;2023-07-28T17:04:03;94321.44;;;29.98;nan
5879;BME280;2965;42.640;23.370;2023-07-28T17:06:29;94318.09;;;30.01;nan
5879;BME280;2965;42.640;23.370;2023-07-28T17:08:54;94318.97;;;29.87;nan
5879;BME280;2965;42.640;23.370;2023-07-28T17:11:19;94325.13;;;29.79;nan
5879;BME280;2965;42.640;23.370;2023-07-28T17:13:45;94326.69;;;29.72;nan
5879;BME280;2965;42.640;23.370;2023-07-28T17:16:10;94329.31;;;29.63;nan
5879;BME280;2965;42.640;23.370;2023-07-28T17:18:35;94325.75;;;29.54;nan
5879;BME280;2965;42.640;23.370;2023-07-28T17:21:01;94323.03;;;29.31;nan
5879;BME280;2965;42.640;23.370;2023-07-28T17:23:26;94334.31;;;28.97;nan
5879;BME280;2965;42.640;23.370;2023-07-28T17:25:52;94336.31;;;28.64;nan
5879;BME280;2965;42.640;23.370;2023-07-28T17:28:17;94348.72;;;28.51;nan
5879;BME280;2965;42.640;23.370;2023-07-28T17:30:43;94344.38;;;28.09;nan